sensor_id;sensor_type;location;lat;lon;timestamp;temperature;humidity
62363;DHT22;48396;48.426;1.500;2023-03-31T00:01:29;14.70;99.60
62363;DHT22;48396;48.426;1.500;2023-03-31T00:03:58;14.70;99.50
62363;DHT22;48396;48.426;1.500;2023-03-31T00:06:30;14.50;99.50
62363;DHT22;48396;48.426;1.500;2023-03-31T00:08:56;14.30;99.80
62363;DHT22;48396;48.426;1.500;2023-03-31T00:11:26;14.20;99.80
62363;DHT22;48396;48.426;1.500;2023-03-31T00:13:52;14.20;99.90
62363;DHT22;48396;48.426;1.500;2023-03-31T00:16:18;14.20;99.90
62363;DHT22;48396;48.426;1.500;2023-03-31T00:18:44;14.10;99.90
62363;DHT22;48396;48.426;1.500;2023-03-31T00:21:14;14.10;99.90
62363;DHT22;48396;48.426;1.500;2023-03-31T00:23:49;14.20;99.80
62363;DHT22;48396;48.426;1.500;2023-03-31T00:26:15;14.10;99.90
62363;DHT22;48396;48.426;1.500;2023-03-31T00:28:40;14.00;99.90
62363;DHT22;48396;48.426;1.500;2023-03-31T00:31:06;14.00;99.90
62363;DHT22;48396;48.426;1.500;2023-03-31T00:33:32;14.00;99.90
62363;DHT22;48396;48.426;1.500;2023-03-31T00:35:57;13.90;99.90
62363;DHT22;48396;48.426;1.500;2023-03-31T00:38:27;14.00;99.90
62363;DHT22;48396;48.426;1.500;2023-03-31T00:40:54;13.90;99.90
62363;DHT22;48396;48.426;1.500;2023-03-31T00:45:57;13.90;99.90
62363;DHT22;48396;48.426;1.500;2023-03-31T00:48:25;13.90;99.90
62363;DHT22;48396;48.426;1.500;2023-03-31T00:50:56;14.00;99.90
62363;DHT22;48396;48.426;1.500;2023-03-31T00:53:27;13.90;99.90
62363;DHT22;48396;48.426;1.500;2023-03-31T00:56:00;13.90;99.90
62363;DHT22;48396;48.426;1.500;2023-03-31T00:58:26;13.80;99.90
62363;DHT22;48396;48.426;1.500;2023-03-31T01:00:55;13.70;99.90
62363;DHT22;48396;48.426;1.500;2023-03-31T01:03:22;13.80;99.90
62363;DHT22;48396;48.426;1.500;2023-03-31T01:08:15;13.90;99.90
62363;DHT22;48396;48.426;1.500;2023-03-31T01:10:52;13.90;99.90
62363;DHT22;48396;48.426;1.500;2023-03-31T01:13:19;13.90;99.90
62363;DHT22;48396;48.426;1.500;2023-03-31T01:15:45;13.80;99.90
62363;DHT22;48396;48.426;1.500;2023-03-31T01:18:12;13.70;99.90
62363;DHT22;48396;48.426;1.500;2023-03-31T01:23:26;13.60;99.90
62363;DHT22;48396;48.426;1.500;2023-03-31T01:32:04;13.70;99.90
62363;DHT22;48396;48.426;1.500;2023-03-31T01:34:55;13.60;99.90
62363;DHT22;48396;48.426;1.500;2023-03-31T01:46:27;13.60;99.90
62363;DHT22;48396;48.426;1.500;2023-03-31T01:49:01;13.50;99.90
62363;DHT22;48396;48.426;1.500;2023-03-31T01:51:39;13.70;99.90
62363;DHT22;48396;48.426;1.500;2023-03-31T01:54:18;13.70;99.90
62363;DHT22;48396;48.426;1.500;2023-03-31T01:56:56;13.70;99.90
62363;DHT22;48396;48.426;1.500;2023-03-31T01:59:28;13.70;99.90
62363;DHT22;48396;48.426;1.500;2023-03-31T02:02:03;13.70;99.90
62363;DHT22;48396;48.426;1.500;2023-03-31T02:04:40;13.70;99.90
62363;DHT22;48396;48.426;1.500;2023-03-31T02:07:11;13.70;99.90
62363;DHT22;48396;48.426;1.500;2023-03-31T02:09:43;13.60;99.90
62363;DHT22;48396;48.426;1.500;2023-03-31T02:12:11;13.70;99.90
62363;DHT22;48396;48.426;1.500;2023-03-31T02:14:41;13.70;99.90
62363;DHT22;48396;48.426;1.500;2023-03-31T02:17:10;13.80;99.90
62363;DHT22;48396;48.426;1.500;2023-03-31T02:19:40;13.80;99.90
62363;DHT22;48396;48.426;1.500;2023-03-31T02:22:08;13.80;99.90
62363;DHT22;48396;48.426;1.500;2023-03-31T02:24:35;13.80;99.90
62363;DHT22;48396;48.426;1.500;2023-03-31T02:27:11;13.80;99.90
62363;DHT22;48396;48.426;1.500;2023-03-31T02:29:40;13.70;99.90
62363;DHT22;48396;48.426;1.500;2023-03-31T02:34:45;13.90;99.90
62363;DHT22;48396;48.426;1.500;2023-03-31T02:37:12;13.90;99.90
62363;DHT22;48396;48.426;1.500;2023-03-31T02:39:40;13.90;99.90
62363;DHT22;48396;48.426;1.500;2023-03-31T02:42:07;13.80;99.90
62363;DHT22;48396;48.426;1.500;2023-03-31T02:44:34;13.80;99.90
62363;DHT22;48396;48.426;1.500;2023-03-31T02:47:02;13.90;99.90
62363;DHT22;48396;48.426;1.500;2023-03-31T02:49:29;13.80;99.90
62363;DHT22;48396;48.426;1.500;2023-03-31T02:54:44;13.70;99.90
62363;DHT22;48396;48.426;1.500;2023-03-31T02:57:40;13.70;99.90
62363;DHT22;48396;48.426;1.500;2023-03-31T03:08:37;13.60;99.90
62363;DHT22;48396;48.426;1.500;2023-03-31T03:11:25;13.60;99.90
62363;DHT22;48396;48.426;1.500;2023-03-31T03:16:28;13.80;99.90
62363;DHT22;48396;48.426;1.500;2023-03-31T03:18:59;13.70;99.90
62363;DHT22;48396;48.426;1.500;2023-03-31T03:21:25;13.80;99.90
62363;DHT22;48396;48.426;1.500;2023-03-31T03:23:51;13.60;99.90
62363;DHT22;48396;48.426;1.500;2023-03-31T03:26:18;13.60;99.90
62363;DHT22;48396;48.426;1.500;2023-03-31T03:28:51;13.60;99.90
62363;DHT22;48396;48.426;1.500;2023-03-31T03:31:18;13.60;99.90
62363;DHT22;48396;48.426;1.500;2023-03-31T03:33:43;13.70;99.90
62363;DHT22;48396;48.426;1.500;2023-03-31T03:36:09;13.70;99.90
62363;DHT22;48396;48.426;1.500;2023-03-31T03:38:35;13.60;99.90
62363;DHT22;48396;48.426;1.500;2023-03-31T03:41:01;13.70;99.90
62363;DHT22;48396;48.426;1.500;2023-03-31T03:43:26;13.80;99.90
62363;DHT22;48396;48.426;1.500;2023-03-31T03:45:52;13.80;99.90
62363;DHT22;48396;48.426;1.500;2023-03-31T03:48:18;13.70;99.90
62363;DHT22;48396;48.426;1.500;2023-03-31T03:51:04;13.70;99.90
62363;DHT22;48396;48.426;1.500;2023-03-31T03:56:53;13.60;99.90
62363;DHT22;48396;48.426;1.500;2023-03-31T03:59:36;13.60;99.90
62363;DHT22;48396;48.426;1.500;2023-03-31T04:08:13;13.60;99.90
62363;DHT22;48396;48.426;1.500;2023-03-31T04:10:48;13.70;99.90
62363;DHT22;48396;48.426;1.500;2023-03-31T04:13:32;13.80;99.90
62363;DHT22;48396;48.426;1.500;2023-03-31T04:16:06;13.70;99.90
62363;DHT22;48396;48.426;1.500;2023-03-31T04:18:53;13.80;99.90
62363;DHT22;48396;48.426;1.500;2023-03-31T05:34:32;13.30;99.90
62363;DHT22;48396;48.426;1.500;2023-03-31T05:36:57;13.40;99.90
62363;DHT22;48396;48.426;1.500;2023-03-31T05:39:23;13.50;99.90
62363;DHT22;48396;48.426;1.500;2023-03-31T05:41:48;13.50;99.90
62363;DHT22;48396;48.426;1.500;2023-03-31T05:44:14;13.30;99.90
62363;DHT22;48396;48.426;1.500;2023-03-31T05:46:40;13.40;99.90
62363;DHT22;48396;48.426;1.500;2023-03-31T05:49:06;13.30;99.90
62363;DHT22;48396;48.426;1.500;2023-03-31T05:51:32;13.30;99.90
62363;DHT22;48396;48.426;1.500;2023-03-31T05:53:58;13.20;99.90
62363;DHT22;48396;48.426;1.500;2023-03-31T05:56:24;13.20;99.90
62363;DHT22;48396;48.426;1.500;2023-03-31T05:58:52;13.20;99.90
62363;DHT22;48396;48.426;1.500;2023-03-31T06:01:17;13.30;99.90
62363;DHT22;48396;48.426;1.500;2023-03-31T06:03:47;13.30;99.90
62363;DHT22;48396;48.426;1.500;2023-03-31T06:06:13;13.40;99.90
62363;DHT22;48396;48.426;1.500;2023-03-31T06:08:41;13.40;99.70
62363;DHT22;48396;48.426;1.500;2023-03-31T06:11:09;13.40;99.60
62363;DHT22;48396;48.426;1.500;2023-03-31T06:13:36;13.50;99.50
62363;DHT22;48396;48.426;1.500;2023-03-31T06:16:02;13.40;99.50
62363;DHT22;48396;48.426;1.500;2023-03-31T06:18:30;13.40;99.60
62363;DHT22;48396;48.426;1.500;2023-03-31T06:20:56;13.50;99.60
62363;DHT22;48396;48.426;1.500;2023-03-31T06:23:22;13.40;99.60
62363;DHT22;48396;48.426;1.500;2023-03-31T06:25:49;13.30;99.80
62363;DHT22;48396;48.426;1.500;2023-03-31T06:28:14;13.30;99.90
62363;DHT22;48396;48.426;1.500;2023-03-31T06:30:40;13.10;99.90
62363;DHT22;48396;48.426;1.500;2023-03-31T06:33:06;13.10;99.90
62363;DHT22;48396;48.426;1.500;2023-03-31T06:35:32;13.10;99.90
62363;DHT22;48396;48.426;1.500;2023-03-31T06:37:57;13.00;99.90
62363;DHT22;48396;48.426;1.500;2023-03-31T06:40:23;13.10;99.90
62363;DHT22;48396;48.426;1.500;2023-03-31T06:42:49;13.30;99.90
62363;DHT22;48396;48.426;1.500;2023-03-31T06:45:15;13.40;99.80
62363;DHT22;48396;48.426;1.500;2023-03-31T06:47:40;13.50;99.70
62363;DHT22;48396;48.426;1.500;2023-03-31T06:50:07;13.50;99.60
62363;DHT22;48396;48.426;1.500;2023-03-31T06:52:34;13.50;99.60
62363;DHT22;48396;48.426;1.500;2023-03-31T06:55:00;13.50;99.70
62363;DHT22;48396;48.426;1.500;2023-03-31T06:57:27;13.50;99.80
62363;DHT22;48396;48.426;1.500;2023-03-31T06:59:53;13.50;99.90
62363;DHT22;48396;48.426;1.500;2023-03-31T07:02:19;13.50;99.90
62363;DHT22;48396;48.426;1.500;2023-03-31T07:04:45;13.50;99.90
62363;DHT22;48396;48.426;1.500;2023-03-31T07:07:11;13.40;99.90
62363;DHT22;48396;48.426;1.500;2023-03-31T07:09:36;13.40;99.90
62363;DHT22;48396;48.426;1.500;2023-03-31T07:12:03;13.40;99.90
62363;DHT22;48396;48.426;1.500;2023-03-31T07:14:30;13.50;99.90
62363;DHT22;48396;48.426;1.500;2023-03-31T07:16:56;13.40;99.90
62363;DHT22;48396;48.426;1.500;2023-03-31T07:19:22;13.40;99.90
62363;DHT22;48396;48.426;1.500;2023-03-31T07:21:48;13.40;99.90
62363;DHT22;48396;48.426;1.500;2023-03-31T07:24:14;13.40;99.90
62363;DHT22;48396;48.426;1.500;2023-03-31T07:26:40;13.50;99.90
62363;DHT22;48396;48.426;1.500;2023-03-31T07:29:06;13.70;99.90
62363;DHT22;48396;48.426;1.500;2023-03-31T07:31:31;13.60;99.90
62363;DHT22;48396;48.426;1.500;2023-03-31T07:33:57;13.60;99.90
62363;DHT22;48396;48.426;1.500;2023-03-31T07:36:23;13.70;99.90
62363;DHT22;48396;48.426;1.500;2023-03-31T07:38:48;13.80;99.90
62363;DHT22;48396;48.426;1.500;2023-03-31T07:41:16;13.70;99.50
62363;DHT22;48396;48.426;1.500;2023-03-31T07:43:42;13.70;99.70
62363;DHT22;48396;48.426;1.500;2023-03-31T07:46:19;13.70;99.60
62363;DHT22;48396;48.426;1.500;2023-03-31T07:48:46;13.80;99.40
62363;DHT22;48396;48.426;1.500;2023-03-31T07:51:14;13.70;99.10
62363;DHT22;48396;48.426;1.500;2023-03-31T07:53:40;13.70;99.10
62363;DHT22;48396;48.426;1.500;2023-03-31T07:56:06;13.80;99.00
62363;DHT22;48396;48.426;1.500;2023-03-31T07:58:31;13.90;99.10
62363;DHT22;48396;48.426;1.500;2023-03-31T08:00:57;13.90;99.10
62363;DHT22;48396;48.426;1.500;2023-03-31T08:03:22;13.90;99.30
62363;DHT22;48396;48.426;1.500;2023-03-31T08:05:51;13.90;99.20
62363;DHT22;48396;48.426;1.500;2023-03-31T08:08:16;13.90;98.90
62363;DHT22;48396;48.426;1.500;2023-03-31T08:10:42;13.90;98.70
62363;DHT22;48396;48.426;1.500;2023-03-31T08:13:07;14.00;98.20
62363;DHT22;48396;48.426;1.500;2023-03-31T08:15:33;14.00;98.20
62363;DHT22;48396;48.426;1.500;2023-03-31T08:17:59;14.00;98.40
62363;DHT22;48396;48.426;1.500;2023-03-31T08:20:24;14.00;98.10
62363;DHT22;48396;48.426;1.500;2023-03-31T08:22:50;14.00;97.90
62363;DHT22;48396;48.426;1.500;2023-03-31T08:25:16;14.00;98.00
62363;DHT22;48396;48.426;1.500;2023-03-31T08:27:41;14.00;98.00
62363;DHT22;48396;48.426;1.500;2023-03-31T08:30:08;14.00;97.70
62363;DHT22;48396;48.426;1.500;2023-03-31T08:32:35;13.90;97.90
62363;DHT22;48396;48.426;1.500;2023-03-31T08:35:00;13.90;97.60
62363;DHT22;48396;48.426;1.500;2023-03-31T08:37:26;13.90;97.50
62363;DHT22;48396;48.426;1.500;2023-03-31T08:39:55;14.00;97.10
62363;DHT22;48396;48.426;1.500;2023-03-31T08:42:40;14.00;97.00
62363;DHT22;48396;48.426;1.500;2023-03-31T08:45:51;14.10;97.50
62363;DHT22;48396;48.426;1.500;2023-03-31T08:48:44;14.20;97.00
62363;DHT22;48396;48.426;1.500;2023-03-31T08:51:25;14.20;96.80
62363;DHT22;48396;48.426;1.500;2023-03-31T08:56:56;14.10;96.70
62363;DHT22;48396;48.426;1.500;2023-03-31T08:59:30;14.10;96.60
62363;DHT22;48396;48.426;1.500;2023-03-31T09:02:07;14.20;96.60
62363;DHT22;48396;48.426;1.500;2023-03-31T09:18:32;14.30;96.10
62363;DHT22;48396;48.426;1.500;2023-03-31T09:21:10;14.40;95.70
62363;DHT22;48396;48.426;1.500;2023-03-31T09:23:47;14.40;95.90
62363;DHT22;48396;48.426;1.500;2023-03-31T09:26:26;14.40;95.80
62363;DHT22;48396;48.426;1.500;2023-03-31T09:28:54;14.40;95.40
62363;DHT22;48396;48.426;1.500;2023-03-31T09:31:22;14.40;95.90
62363;DHT22;48396;48.426;1.500;2023-03-31T09:33:52;14.40;96.40
62363;DHT22;48396;48.426;1.500;2023-03-31T09:36:20;14.40;96.70
62363;DHT22;48396;48.426;1.500;2023-03-31T09:38:49;14.30;96.70
62363;DHT22;48396;48.426;1.500;2023-03-31T09:41:16;14.40;97.20
62363;DHT22;48396;48.426;1.500;2023-03-31T09:43:43;14.40;97.50
62363;DHT22;48396;48.426;1.500;2023-03-31T09:46:28;14.30;97.60
62363;DHT22;48396;48.426;1.500;2023-03-31T09:49:12;14.40;97.30
62363;DHT22;48396;48.426;1.500;2023-03-31T09:51:42;14.40;97.20
62363;DHT22;48396;48.426;1.500;2023-03-31T09:54:13;14.30;96.80
62363;DHT22;48396;48.426;1.500;2023-03-31T09:59:18;14.40;96.30
62363;DHT22;48396;48.426;1.500;2023-03-31T10:01:46;14.30;96.50
62363;DHT22;48396;48.426;1.500;2023-03-31T10:04:24;14.40;96.60
62363;DHT22;48396;48.426;1.500;2023-03-31T10:06:51;14.50;96.30
62363;DHT22;48396;48.426;1.500;2023-03-31T10:09:19;14.40;96.30
62363;DHT22;48396;48.426;1.500;2023-03-31T10:11:58;14.50;96.00
62363;DHT22;48396;48.426;1.500;2023-03-31T10:14:43;14.60;95.90
62363;DHT22;48396;48.426;1.500;2023-03-31T10:17:22;14.60;95.40
62363;DHT22;48396;48.426;1.500;2023-03-31T10:19:50;14.60;95.70
62363;DHT22;48396;48.426;1.500;2023-03-31T10:24:50;14.70;95.30
62363;DHT22;48396;48.426;1.500;2023-03-31T10:29:53;14.60;95.60
62363;DHT22;48396;48.426;1.500;2023-03-31T10:34:54;14.70;95.40
62363;DHT22;48396;48.426;1.500;2023-03-31T10:37:24;14.70;95.50
62363;DHT22;48396;48.426;1.500;2023-03-31T10:40:12;14.70;95.60
62363;DHT22;48396;48.426;1.500;2023-03-31T10:42:39;14.70;95.80
62363;DHT22;48396;48.426;1.500;2023-03-31T10:45:23;14.70;95.80
62363;DHT22;48396;48.426;1.500;2023-03-31T10:47:52;14.70;95.70
62363;DHT22;48396;48.426;1.500;2023-03-31T10:50:18;14.70;96.20
62363;DHT22;48396;48.426;1.500;2023-03-31T10:52:46;14.60;96.50
62363;DHT22;48396;48.426;1.500;2023-03-31T10:55:13;14.40;97.00
62363;DHT22;48396;48.426;1.500;2023-03-31T10:57:54;14.20;97.60
62363;DHT22;48396;48.426;1.500;2023-03-31T11:06:30;14.40;97.90
62363;DHT22;48396;48.426;1.500;2023-03-31T11:14:46;14.20;97.60
62363;DHT22;48396;48.426;1.500;2023-03-31T11:23:09;14.10;98.00
62363;DHT22;48396;48.426;1.500;2023-03-31T11:25:57;14.10;97.90
62363;DHT22;48396;48.426;1.500;2023-03-31T11:34:25;14.40;98.30
62363;DHT22;48396;48.426;1.500;2023-03-31T11:45:38;14.70;97.30
62363;DHT22;48396;48.426;1.500;2023-03-31T11:48:17;14.80;96.20
62363;DHT22;48396;48.426;1.500;2023-03-31T11:50:47;14.70;96.10
62363;DHT22;48396;48.426;1.500;2023-03-31T11:53:18;14.70;96.30
62363;DHT22;48396;48.426;1.500;2023-03-31T11:55:47;14.70;96.40
62363;DHT22;48396;48.426;1.500;2023-03-31T12:01:00;14.80;95.80
62363;DHT22;48396;48.426;1.500;2023-03-31T12:03:56;14.70;96.30
62363;DHT22;48396;48.426;1.500;2023-03-31T12:06:28;14.70;96.20
62363;DHT22;48396;48.426;1.500;2023-03-31T12:11:45;14.80;95.80
62363;DHT22;48396;48.426;1.500;2023-03-31T12:14:38;14.80;95.90
62363;DHT22;48396;48.426;1.500;2023-03-31T12:19:55;15.00;95.80
62363;DHT22;48396;48.426;1.500;2023-03-31T12:24:52;15.10;95.40
62363;DHT22;48396;48.426;1.500;2023-03-31T12:32:43;15.40;96.70
62363;DHT22;48396;48.426;1.500;2023-03-31T12:37:57;15.60;96.20
62363;DHT22;48396;48.426;1.500;2023-03-31T12:43:16;15.70;96.20
62363;DHT22;48396;48.426;1.500;2023-03-31T12:46:02;15.70;96.40
62363;DHT22;48396;48.426;1.500;2023-03-31T12:48:49;15.80;95.90
62363;DHT22;48396;48.426;1.500;2023-03-31T12:57:21;16.00;95.20
62363;DHT22;48396;48.426;1.500;2023-03-31T13:02:37;15.90;94.80
62363;DHT22;48396;48.426;1.500;2023-03-31T13:08:09;15.40;96.10
62363;DHT22;48396;48.426;1.500;2023-03-31T13:11:01;15.50;96.50
62363;DHT22;48396;48.426;1.500;2023-03-31T13:13:26;15.50;96.30
62363;DHT22;48396;48.426;1.500;2023-03-31T13:15:55;15.40;95.60
62363;DHT22;48396;48.426;1.500;2023-03-31T13:18:21;15.40;95.50
62363;DHT22;48396;48.426;1.500;2023-03-31T13:20:57;15.40;95.30
62363;DHT22;48396;48.426;1.500;2023-03-31T13:23:24;15.40;95.40
62363;DHT22;48396;48.426;1.500;2023-03-31T13:25:55;15.30;96.10
62363;DHT22;48396;48.426;1.500;2023-03-31T13:30:52;15.10;96.90
62363;DHT22;48396;48.426;1.500;2023-03-31T13:33:43;15.10;97.20
62363;DHT22;48396;48.426;1.500;2023-03-31T13:36:21;15.10;97.40
62363;DHT22;48396;48.426;1.500;2023-03-31T13:41:46;14.90;98.00
62363;DHT22;48396;48.426;1.500;2023-03-31T13:47:37;14.60;98.80
62363;DHT22;48396;48.426;1.500;2023-03-31T13:49:49;14.30;97.80
62363;DHT22;48396;48.426;1.500;2023-03-31T13:52:34;13.90;97.90
62363;DHT22;48396;48.426;1.500;2023-03-31T13:55:35;13.70;98.10
62363;DHT22;48396;48.426;1.500;2023-03-31T14:05:38;14.30;98.60
62363;DHT22;48396;48.426;1.500;2023-03-31T14:08:10;14.40;98.70
62363;DHT22;48396;48.426;1.500;2023-03-31T14:10:37;14.70;98.60
62363;DHT22;48396;48.426;1.500;2023-03-31T14:13:08;14.80;98.90
62363;DHT22;48396;48.426;1.500;2023-03-31T14:15:56;14.90;98.40
62363;DHT22;48396;48.426;1.500;2023-03-31T14:18:31;14.90;98.60
62363;DHT22;48396;48.426;1.500;2023-03-31T14:24:00;14.90;98.30
62363;DHT22;48396;48.426;1.500;2023-03-31T14:27:02;15.00;98.40
62363;DHT22;48396;48.426;1.500;2023-03-31T14:29:58;15.00;98.30
62363;DHT22;48396;48.426;1.500;2023-03-31T14:37:48;15.20;98.10
62363;DHT22;48396;48.426;1.500;2023-03-31T14:40:16;15.20;97.90
62363;DHT22;48396;48.426;1.500;2023-03-31T14:42:43;15.30;97.90
62363;DHT22;48396;48.426;1.500;2023-03-31T14:47:56;15.40;96.30
62363;DHT22;48396;48.426;1.500;2023-03-31T14:50:28;15.20;96.10
62363;DHT22;48396;48.426;1.500;2023-03-31T14:52:55;15.20;96.30
62363;DHT22;48396;48.426;1.500;2023-03-31T14:55:23;15.10;96.50
62363;DHT22;48396;48.426;1.500;2023-03-31T14:57:50;15.00;96.80
62363;DHT22;48396;48.426;1.500;2023-03-31T15:00:25;14.90;97.00
62363;DHT22;48396;48.426;1.500;2023-03-31T15:02:51;14.90;97.10
62363;DHT22;48396;48.426;1.500;2023-03-31T15:07:47;14.80;97.30
62363;DHT22;48396;48.426;1.500;2023-03-31T15:10:18;14.90;97.40
62363;DHT22;48396;48.426;1.500;2023-03-31T15:12:45;15.00;97.40
62363;DHT22;48396;48.426;1.500;2023-03-31T15:15:13;14.80;97.30
62363;DHT22;48396;48.426;1.500;2023-03-31T15:17:41;14.80;97.60
62363;DHT22;48396;48.426;1.500;2023-03-31T15:22:54;14.80;97.90
62363;DHT22;48396;48.426;1.500;2023-03-31T15:25:23;14.70;96.30
62363;DHT22;48396;48.426;1.500;2023-03-31T15:27:59;14.40;95.40
62363;DHT22;48396;48.426;1.500;2023-03-31T15:30:28;14.00;95.70
62363;DHT22;48396;48.426;1.500;2023-03-31T15:32:54;13.80;96.20
62363;DHT22;48396;48.426;1.500;2023-03-31T15:35:27;13.50;97.10
62363;DHT22;48396;48.426;1.500;2023-03-31T15:37:56;13.40;97.40
62363;DHT22;48396;48.426;1.500;2023-03-31T15:43:03;13.20;98.00
62363;DHT22;48396;48.426;1.500;2023-03-31T15:45:54;13.30;98.30
62363;DHT22;48396;48.426;1.500;2023-03-31T15:51:05;13.60;98.40
62363;DHT22;48396;48.426;1.500;2023-03-31T15:53:35;13.60;98.80
62363;DHT22;48396;48.426;1.500;2023-03-31T15:56:02;13.70;99.10
62363;DHT22;48396;48.426;1.500;2023-03-31T15:59:25;13.80;98.60
62363;DHT22;48396;48.426;1.500;2023-03-31T16:01:53;13.80;98.40
62363;DHT22;48396;48.426;1.500;2023-03-31T16:04:19;13.80;98.50
62363;DHT22;48396;48.426;1.500;2023-03-31T16:06:53;13.70;98.40
62363;DHT22;48396;48.426;1.500;2023-03-31T16:09:36;13.80;98.50
62363;DHT22;48396;48.426;1.500;2023-03-31T16:12:09;13.90;98.80
62363;DHT22;48396;48.426;1.500;2023-03-31T16:14:41;14.10;98.80
62363;DHT22;48396;48.426;1.500;2023-03-31T16:17:22;14.30;98.80
62363;DHT22;48396;48.426;1.500;2023-03-31T16:19:53;14.40;98.20
62363;DHT22;48396;48.426;1.500;2023-03-31T16:22:25;14.40;98.00
62363;DHT22;48396;48.426;1.500;2023-03-31T16:24:52;14.50;97.80
62363;DHT22;48396;48.426;1.500;2023-03-31T16:27:18;14.40;97.90
62363;DHT22;48396;48.426;1.500;2023-03-31T16:29:43;14.40;97.70
62363;DHT22;48396;48.426;1.500;2023-03-31T16:32:12;14.30;97.80
62363;DHT22;48396;48.426;1.500;2023-03-31T16:34:58;14.30;97.90
62363;DHT22;48396;48.426;1.500;2023-03-31T16:37:25;14.30;98.00
62363;DHT22;48396;48.426;1.500;2023-03-31T16:39:51;14.20;98.20
62363;DHT22;48396;48.426;1.500;2023-03-31T16:42:17;14.20;98.00
62363;DHT22;48396;48.426;1.500;2023-03-31T16:44:43;14.20;97.90
62363;DHT22;48396;48.426;1.500;2023-03-31T16:47:13;14.10;97.90
62363;DHT22;48396;48.426;1.500;2023-03-31T16:49:39;14.00;98.20
62363;DHT22;48396;48.426;1.500;2023-03-31T16:52:05;14.00;98.40
62363;DHT22;48396;48.426;1.500;2023-03-31T16:54:31;14.00;98.40
62363;DHT22;48396;48.426;1.500;2023-03-31T16:56:57;14.00;98.40
62363;DHT22;48396;48.426;1.500;2023-03-31T16:59:23;13.90;98.40
62363;DHT22;48396;48.426;1.500;2023-03-31T17:01:49;13.80;98.70
62363;DHT22;48396;48.426;1.500;2023-03-31T17:04:15;13.80;98.60
62363;DHT22;48396;48.426;1.500;2023-03-31T17:06:41;13.70;98.50
62363;DHT22;48396;48.426;1.500;2023-03-31T17:09:06;13.60;98.60
62363;DHT22;48396;48.426;1.500;2023-03-31T17:11:32;13.60;98.60
62363;DHT22;48396;48.426;1.500;2023-03-31T17:13:58;13.60;98.50
62363;DHT22;48396;48.426;1.500;2023-03-31T17:16:24;13.70;98.50
62363;DHT22;48396;48.426;1.500;2023-03-31T17:18:51;14.00;98.60
62363;DHT22;48396;48.426;1.500;2023-03-31T17:21:17;14.60;98.10
62363;DHT22;48396;48.426;1.500;2023-03-31T17:23:45;15.00;96.90
62363;DHT22;48396;48.426;1.500;2023-03-31T17:26:11;15.40;96.70
62363;DHT22;48396;48.426;1.500;2023-03-31T17:28:37;15.60;95.70
62363;DHT22;48396;48.426;1.500;2023-03-31T17:31:11;15.50;95.50
62363;DHT22;48396;48.426;1.500;2023-03-31T17:33:37;15.40;95.80
62363;DHT22;48396;48.426;1.500;2023-03-31T17:36:03;15.70;95.70
62363;DHT22;48396;48.426;1.500;2023-03-31T17:38:28;15.70;95.20
62363;DHT22;48396;48.426;1.500;2023-03-31T17:40:54;15.70;94.90
62363;DHT22;48396;48.426;1.500;2023-03-31T17:43:20;15.80;94.90
62363;DHT22;48396;48.426;1.500;2023-03-31T17:45:46;15.80;94.70
62363;DHT22;48396;48.426;1.500;2023-03-31T17:48:12;15.60;94.70
62363;DHT22;48396;48.426;1.500;2023-03-31T17:50:37;15.30;94.70
62363;DHT22;48396;48.426;1.500;2023-03-31T17:53:03;15.00;94.90
62363;DHT22;48396;48.426;1.500;2023-03-31T17:55:36;14.80;95.30
62363;DHT22;48396;48.426;1.500;2023-03-31T17:58:05;14.50;95.70
62363;DHT22;48396;48.426;1.500;2023-03-31T18:00:32;14.40;95.80
62363;DHT22;48396;48.426;1.500;2023-03-31T18:02:58;14.40;95.90
62363;DHT22;48396;48.426;1.500;2023-03-31T18:05:24;14.20;96.10
62363;DHT22;48396;48.426;1.500;2023-03-31T18:07:49;14.10;96.30
62363;DHT22;48396;48.426;1.500;2023-03-31T18:10:16;14.10;96.30
62363;DHT22;48396;48.426;1.500;2023-03-31T18:12:42;14.00;96.70
62363;DHT22;48396;48.426;1.500;2023-03-31T18:15:09;14.00;97.00
62363;DHT22;48396;48.426;1.500;2023-03-31T18:17:35;14.00;97.10
62363;DHT22;48396;48.426;1.500;2023-03-31T18:20:01;14.00;97.20
62363;DHT22;48396;48.426;1.500;2023-03-31T18:22:26;13.90;97.30
62363;DHT22;48396;48.426;1.500;2023-03-31T18:24:52;13.70;97.30
62363;DHT22;48396;48.426;1.500;2023-03-31T18:27:18;13.70;97.60
62363;DHT22;48396;48.426;1.500;2023-03-31T18:29:43;13.60;97.50
62363;DHT22;48396;48.426;1.500;2023-03-31T18:32:09;13.50;97.60
62363;DHT22;48396;48.426;1.500;2023-03-31T18:34:36;13.50;97.80
62363;DHT22;48396;48.426;1.500;2023-03-31T18:37:02;13.50;97.70
62363;DHT22;48396;48.426;1.500;2023-03-31T18:39:29;13.40;98.20
62363;DHT22;48396;48.426;1.500;2023-03-31T18:41:55;13.40;97.90
62363;DHT22;48396;48.426;1.500;2023-03-31T18:44:22;13.40;98.00
62363;DHT22;48396;48.426;1.500;2023-03-31T18:46:48;13.50;98.00
62363;DHT22;48396;48.426;1.500;2023-03-31T18:49:14;13.60;97.90
62363;DHT22;48396;48.426;1.500;2023-03-31T18:51:39;13.50;98.20
62363;DHT22;48396;48.426;1.500;2023-03-31T18:54:05;13.40;98.20
62363;DHT22;48396;48.426;1.500;2023-03-31T18:56:31;13.40;98.40
62363;DHT22;48396;48.426;1.500;2023-03-31T18:58:57;13.40;98.40
62363;DHT22;48396;48.426;1.500;2023-03-31T19:01:24;13.40;98.30
62363;DHT22;48396;48.426;1.500;2023-03-31T19:03:49;13.50;98.10
62363;DHT22;48396;48.426;1.500;2023-03-31T19:06:15;13.40;98.10
62363;DHT22;48396;48.426;1.500;2023-03-31T19:08:42;13.30;98.20
62363;DHT22;48396;48.426;1.500;2023-03-31T19:11:08;13.30;98.10
62363;DHT22;48396;48.426;1.500;2023-03-31T19:13:35;13.30;98.20
62363;DHT22;48396;48.426;1.500;2023-03-31T19:16:01;13.30;97.80
62363;DHT22;48396;48.426;1.500;2023-03-31T19:18:28;13.30;97.80
62363;DHT22;48396;48.426;1.500;2023-03-31T19:20:55;13.20;97.70
62363;DHT22;48396;48.426;1.500;2023-03-31T19:23:20;13.30;97.80
62363;DHT22;48396;48.426;1.500;2023-03-31T19:25:50;13.30;97.80
62363;DHT22;48396;48.426;1.500;2023-03-31T19:28:16;13.20;97.80
62363;DHT22;48396;48.426;1.500;2023-03-31T19:30:42;13.20;97.80
62363;DHT22;48396;48.426;1.500;2023-03-31T19:33:08;13.20;97.90
62363;DHT22;48396;48.426;1.500;2023-03-31T19:35:33;13.20;97.90
62363;DHT22;48396;48.426;1.500;2023-03-31T19:37:59;13.20;97.70
62363;DHT22;48396;48.426;1.500;2023-03-31T19:40:25;13.20;97.60
62363;DHT22;48396;48.426;1.500;2023-03-31T19:42:52;13.10;97.70
62363;DHT22;48396;48.426;1.500;2023-03-31T19:45:17;13.10;97.70
62363;DHT22;48396;48.426;1.500;2023-03-31T19:47:43;13.00;97.70
62363;DHT22;48396;48.426;1.500;2023-03-31T19:50:09;13.00;97.70
62363;DHT22;48396;48.426;1.500;2023-03-31T19:52:35;13.00;97.80
62363;DHT22;48396;48.426;1.500;2023-03-31T19:55:01;12.90;97.80
62363;DHT22;48396;48.426;1.500;2023-03-31T19:57:27;12.90;97.80
62363;DHT22;48396;48.426;1.500;2023-03-31T19:59:53;12.90;97.90